עמוד ראשי
METAR-TAF:

METAR-TAF

שדות תעופה :

Abumusa, איראן

קו רוחב: 25-52-33N, קו אורך: 055-02-01E, גובה: 7מטר

תצפית מזג אוויר נוכחית

הדו"ח נערך לפני 5 שעות ו 8דקות, בשעה 15:00 UTC
רוח 12קשר מכיוון מערב
טמפרטורת 35 צלסיוס
לחות 67%
לחץ 997 hPa
ראות: 6000מטר

METAR: OIBA 131500Z 28012KT 6000 NSC 35/28 Q0997

זמן: 00:38 (20:08 UTC)


TAF: חסר

תצפיות ותחזיות מזג אוויר לגבי יותר מ- 4,000 שדות תעופה ברחבי העולם. דוחות METAR ו- TAF.

התחנות הזמינות מסומנות בנקודות צהובות ואדומות על גבי המפה.

העבר את העכבר לנקודה הצבעונית על מנת לראות את שם התחנה.

לאחר מכן, לחץ כדי לראות את תוכן ואת תחזיות מזג האוויר.

כדי לשנות את המפה: לחץ על הכפתורים הירוקים עם הפלוס השחור כדי להתקרב; על הכפתור הירוק עם המקף כדי להתרחק; או בחיצים הירוקים למפות סמוכות.


METAR-TAF: